Time;durP1;ratioP1;P1;durP2;ratioP2;P2;SDS_P1;SDS_P2;PMS_P1;PMS_P2;Temp;Humidity;BMP_temperature;BMP_pressure;BME280_temperature;BME280_humidity;BME280_pressure;Samples;Min_cycle;Max_cycle;Signal;HPM_P1;HPM_P2
2022/04/25 00:01:54;;;;;;;9.37;6.03;;;10.00;99.90;;;;;;5097775;28;20523;-82
2022/04/25 00:04:21;;;;;;;10.93;6.07;;;10.10;99.90;;;;;;5096595;28;20207;-82
2022/04/25 00:06:49;;;;;;;9.90;6.43;;;10.10;99.90;;;;;;5097166;28;20211;-82
2022/04/25 00:09:15;;;;;;;7.30;5.70;;;10.10;99.90;;;;;;5097455;28;20220;-83
2022/04/25 00:11:43;;;;;;;9.87;5.90;;;10.10;99.90;;;;;;5096763;28;20521;-82
2022/04/25 00:14:11;;;;;;;8.87;6.50;;;10.10;99.90;;;;;;5097237;28;20480;-83
2022/04/25 00:16:38;;;;;;;8.63;5.80;;;10.10;99.90;;;;;;5097262;28;20492;-82
2022/04/25 00:19:05;;;;;;;9.80;6.27;;;10.10;99.90;;;;;;5096039;28;20193;-79
2022/04/25 00:21:32;;;;;;;12.30;7.03;;;10.10;99.90;;;;;;5096000;28;20652;-81
2022/04/25 00:24:00;;;;;;;9.27;5.57;;;10.10;99.90;;;;;;5095650;28;20232;-81
2022/04/25 00:26:27;;;;;;;6.50;5.07;;;10.10;99.90;;;;;;5095903;28;20201;-81
2022/04/25 00:28:54;;;;;;;7.20;5.90;;;10.10;99.90;;;;;;5096328;28;20228;-82
2022/04/25 00:31:20;;;;;;;7.70;5.40;;;10.00;99.90;;;;;;5095592;28;20219;-81
2022/04/25 00:33:47;;;;;;;7.97;5.40;;;10.00;99.90;;;;;;5095513;28;20402;-81
2022/04/25 00:36:14;;;;;;;9.00;6.07;;;10.00;99.90;;;;;;5095541;28;20282;-80
2022/04/25 00:38:41;;;;;;;6.57;5.20;;;10.00;99.90;;;;;;5096278;28;20607;-81
2022/04/25 00:41:09;;;;;;;7.57;5.17;;;10.00;99.90;;;;;;5094874;28;20204;-79
2022/04/25 00:43:36;;;;;;;6.23;5.40;;;10.00;99.90;;;;;;5096388;28;20201;-81
2022/04/25 00:46:03;;;;;;;8.67;5.70;;;10.00;99.90;;;;;;5095769;28;20215;-80
2022/04/25 00:48:30;;;;;;;9.57;6.23;;;10.00;99.90;;;;;;5091304;28;20265;-82
2022/04/25 00:50:57;;;;;;;8.93;6.23;;;9.90;99.90;;;;;;5090407;28;20234;-81
2022/04/25 00:53:24;;;;;;;7.07;5.57;;;9.90;99.90;;;;;;5095679;28;20631;-80
2022/04/25 00:55:51;;;;;;;11.43;6.50;;;9.90;99.90;;;;;;5095648;28;20204;-81
2022/04/25 00:58:19;;;;;;;8.57;5.80;;;9.90;99.90;;;;;;5096147;28;20215;-82
2022/04/25 01:00:46;;;;;;;9.80;6.77;;;9.90;99.90;;;;;;5095460;28;20203;-82
2022/04/25 01:03:13;;;;;;;8.50;5.57;;;10.00;99.90;;;;;;5095202;28;20283;-80
2022/04/25 01:05:40;;;;;;;11.50;6.53;;;10.00;99.90;;;;;;5095817;28;20235;-82
2022/04/25 01:08:08;;;;;;;11.63;6.40;;;10.10;99.90;;;;;;5093609;28;20207;-81
2022/04/25 01:10:35;;;;;;;9.67;6.63;;;10.10;99.90;;;;;;5094069;28;20600;-83
2022/04/25 01:13:02;;;;;;;8.50;6.53;;;10.20;99.90;;;;;;5095719;28;20197;-81
2022/04/25 01:15:31;;;;;;;10.47;5.70;;;10.10;99.90;;;;;;5095741;28;20204;-82
2022/04/25 01:17:58;;;;;;;8.37;5.53;;;10.20;99.90;;;;;;5096030;28;20577;-84
2022/04/25 01:20:25;;;;;;;12.20;5.70;;;10.20;99.90;;;;;;5091287;28;20208;-83
2022/04/25 01:22:55;;;;;;;13.20;6.13;;;10.10;99.90;;;;;;5092591;28;20582;-81
2022/04/25 01:28:08;;;;;;;11.20;5.60;;;10.10;99.90;;;;;;5095837;28;20664;-85
2022/04/25 01:30:34;;;;;;;11.63;5.53;;;10.10;99.90;;;;;;5098205;28;20200;-82
2022/04/25 01:33:01;;;;;;;9.50;6.00;;;10.10;99.90;;;;;;5099327;28;20285;-83
2022/04/25 01:35:28;;;;;;;10.67;5.70;;;10.10;99.90;;;;;;5100000;28;20212;-82
2022/04/25 01:37:55;;;;;;;15.00;5.60;;;10.10;99.90;;;;;;5099643;28;20195;-83
2022/04/25 01:40:24;;;;;;;12.27;5.70;;;10.10;99.90;;;;;;5099362;28;20211;-81
2022/04/25 01:42:50;;;;;;;7.43;4.80;;;10.00;99.90;;;;;;5099623;28;20313;-82
2022/04/25 01:45:17;;;;;;;10.53;6.40;;;10.10;99.90;;;;;;5098915;28;20510;-81
2022/04/25 01:47:46;;;;;;;12.60;5.70;;;10.00;99.90;;;;;;5099386;28;20692;-83
2022/04/25 01:50:13;;;;;;;11.97;5.57;;;10.00;99.90;;;;;;5098783;28;20243;-82
2022/04/25 01:52:39;;;;;;;13.80;5.47;;;10.00;99.90;;;;;;5099173;28;20192;-81
2022/04/25 01:55:06;;;;;;;10.97;6.23;;;10.00;99.90;;;;;;5099211;28;20208;-80
2022/04/25 01:57:34;;;;;;;9.40;5.70;;;10.00;99.90;;;;;;5095126;28;20197;-81
2022/04/25 02:00:01;;;;;;;11.80;5.97;;;10.10;99.90;;;;;;5096734;28;20203;-79
2022/04/25 02:02:28;;;;;;;10.27;5.67;;;10.10;99.90;;;;;;5094597;28;20207;-79
2022/04/25 02:04:55;;;;;;;11.07;5.23;;;10.00;99.90;;;;;;5091806;28;20204;-79
2022/04/25 02:07:22;;;;;;;12.03;6.57;;;10.00;99.90;;;;;;5096566;28;20627;-81
2022/04/25 02:09:49;;;;;;;9.30;6.00;;;10.00;99.90;;;;;;5098778;28;20248;-81
2022/04/25 02:12:16;;;;;;;12.50;5.80;;;9.90;99.90;;;;;;5098698;28;20208;-81
2022/04/25 02:14:45;;;;;;;12.33;6.83;;;9.90;99.90;;;;;;5099009;28;20217;-80
2022/04/25 02:17:13;;;;;;;12.23;6.10;;;9.90;99.90;;;;;;5098853;28;20200;-80
2022/04/25 02:19:40;;;;;;;10.87;6.10;;;9.90;99.90;;;;;;5097240;28;20205;-80
2022/04/25 02:22:09;;;;;;;15.43;7.77;;;10.00;99.90;;;;;;5097822;28;20230;-80
2022/04/25 02:24:36;;;;;;;13.20;6.07;;;10.00;99.90;;;;;;5101146;28;20293;-80
2022/04/25 02:27:04;;;;;;;12.70;6.90;;;10.00;99.90;;;;;;5103113;28;20604;-80
2022/04/25 02:29:31;;;;;;;18.53;7.87;;;10.10;99.90;;;;;;5104861;28;20236;-81
2022/04/25 02:32:00;;;;;;;15.30;7.40;;;10.00;99.90;;;;;;5102714;28;20522;-81
2022/04/25 02:34:27;;;;;;;10.90;7.00;;;10.00;99.90;;;;;;5100851;28;20204;-79
2022/04/25 02:36:55;;;;;;;17.27;7.67;;;10.00;99.90;;;;;;5097739;28;20707;-82
2022/04/25 02:39:22;;;;;;;16.57;6.97;;;10.00;99.90;;;;;;5097097;28;20197;-82
2022/04/25 02:41:49;;;;;;;12.47;7.23;;;10.00;99.90;;;;;;5096250;28;20195;-81
2022/04/25 02:44:15;;;;;;;14.90;7.53;;;10.00;99.90;;;;;;5098480;28;20215;-82
2022/04/25 02:46:42;;;;;;;14.67;7.37;;;10.00;99.90;;;;;;5098201;28;20611;-81
2022/04/25 02:49:10;;;;;;;17.00;7.20;;;10.00;99.90;;;;;;5098176;28;20651;-82
2022/04/25 02:51:37;;;;;;;13.03;6.90;;;10.00;99.90;;;;;;5098050;28;20211;-81
2022/04/25 02:54:04;;;;;;;12.00;6.70;;;9.90;99.90;;;;;;5098037;28;20200;-81
2022/04/25 02:56:31;;;;;;;15.10;7.30;;;9.90;99.90;;;;;;5097876;28;20206;-83
2022/04/25 02:58:58;;;;;;;14.63;6.10;;;9.90;99.90;;;;;;5098146;28;20593;-81
2022/04/25 03:01:24;;;;;;;13.83;6.87;;;9.90;99.90;;;;;;5098121;28;20201;-83
2022/04/25 03:03:51;;;;;;;14.87;7.83;;;9.90;99.90;;;;;;5098277;28;20205;-82
2022/04/25 03:06:19;;;;;;;14.60;6.50;;;9.80;99.90;;;;;;5094424;28;20196;-82
2022/04/25 03:08:46;;;;;;;10.57;6.77;;;9.80;99.90;;;;;;5094607;28;20200;-83
2022/04/25 03:11:13;;;;;;;15.40;7.27;;;9.70;99.90;;;;;;5098277;28;20200;-83
2022/04/25 03:13:39;;;;;;;14.63;8.17;;;9.70;99.90;;;;;;5098052;28;20200;-82
2022/04/25 03:16:07;;;;;;;10.17;6.80;;;9.60;99.90;;;;;;5097844;28;20204;-82
2022/04/25 03:18:34;;;;;;;16.80;7.73;;;9.60;99.90;;;;;;5097302;28;20265;-82
2022/04/25 03:21:02;;;;;;;11.70;6.77;;;9.60;99.90;;;;;;5098061;28;20580;-83
2022/04/25 03:23:30;;;;;;;13.93;7.83;;;9.60;99.90;;;;;;5097770;28;20203;-84
2022/04/25 03:25:57;;;;;;;13.77;7.60;;;9.60;99.90;;;;;;5097671;28;20216;-85
2022/04/25 03:28:24;;;;;;;14.13;6.90;;;9.60;99.90;;;;;;5097889;28;20192;-82
2022/04/25 03:30:51;;;;;;;12.47;7.40;;;9.60;99.90;;;;;;5097646;28;20682;-83
2022/04/25 03:33:19;;;;;;;13.87;8.33;;;9.60;99.90;;;;;;5105288;22;20228;-82
2022/04/25 03:35:46;;;;;;;13.10;8.37;;;9.50;99.90;;;;;;5116698;28;20532;-82
2022/04/25 03:38:14;;;;;;;13.13;7.50;;;9.40;99.90;;;;;;5117542;28;20207;-84
2022/04/25 03:40:43;;;;;;;14.13;8.37;;;9.40;99.90;;;;;;5117067;28;20211;-82
2022/04/25 03:43:09;;;;;;;16.07;7.80;;;9.30;99.90;;;;;;5117330;28;20199;-82
2022/04/25 03:45:37;;;;;;;15.13;7.83;;;9.20;99.90;;;;;;5117194;28;20206;-83
2022/04/25 03:48:04;;;;;;;13.03;7.33;;;9.20;99.90;;;;;;5117832;28;20273;-83
2022/04/25 03:50:32;;;;;;;15.07;7.37;;;9.10;99.90;;;;;;5100333;28;20225;-83
2022/04/25 03:53:06;;;;;;;13.83;7.00;;;9.10;99.90;;;;;;5097299;28;20603;-83
2022/04/25 03:58:21;;;;;;;10.90;7.10;;;9.10;99.90;;;;;;5124768;22;20329;-83
2022/04/25 04:00:48;;;;;;;11.37;6.40;;;9.00;99.90;;;;;;5117482;28;20265;-84
2022/04/25 04:03:18;;;;;;;12.57;7.43;;;9.00;99.90;;;;;;5117127;28;20216;-83
2022/04/25 04:05:45;;;;;;;12.40;7.77;;;8.90;99.90;;;;;;5116766;28;20300;-83
2022/04/25 04:08:12;;;;;;;13.40;7.93;;;8.90;99.90;;;;;;5116916;28;20192;-83
2022/04/25 04:10:39;;;;;;;15.47;7.70;;;8.90;99.90;;;;;;5096491;28;20221;-84
2022/04/25 04:13:07;;;;;;;15.53;7.53;;;8.80;99.90;;;;;;5097052;28;20196;-84
2022/04/25 04:15:36;;;;;;;10.33;7.53;;;8.80;99.90;;;;;;5105449;28;20203;-82
2022/04/25 04:18:04;;;;;;;11.87;7.27;;;8.80;99.90;;;;;;5116246;28;20234;-83
2022/04/25 04:20:31;;;;;;;14.10;7.50;;;8.80;99.90;;;;;;5116914;28;20287;-82
2022/04/25 04:22:58;;;;;;;15.33;8.60;;;8.80;99.90;;;;;;5116507;28;20199;-83
2022/04/25 04:25:25;;;;;;;15.90;8.30;;;8.80;99.90;;;;;;5116580;28;20226;-83
2022/04/25 04:27:52;;;;;;;13.63;7.70;;;8.80;99.90;;;;;;5117257;28;20287;-83
2022/04/25 04:30:18;;;;;;;10.27;7.17;;;8.80;99.90;;;;;;5116702;28;20208;-83
2022/04/25 04:32:47;;;;;;;15.30;7.53;;;8.70;99.90;;;;;;5116896;28;20635;-83
2022/04/25 04:36:17;;;;;;;13.10;8.43;;;8.80;99.90;;;;;;5117181;28;20234;-83
2022/04/25 04:38:03;;;;;;;12.67;8.60;;;8.80;99.90;;;;;;5117165;28;20231;-83
2022/04/25 04:40:30;;;;;;;14.47;8.70;;;8.90;99.90;;;;;;5115756;28;20532;-83
2022/04/25 04:42:58;;;;;;;16.87;8.47;;;8.90;99.90;;;;;;5117363;28;20196;-84
2022/04/25 04:45:25;;;;;;;14.30;8.30;;;9.00;99.90;;;;;;5116417;28;20515;-82
2022/04/25 04:47:54;;;;;;;16.00;8.03;;;9.00;99.90;;;;;;5116061;28;20238;-82
2022/04/25 04:50:21;;;;;;;16.40;8.80;;;9.00;99.90;;;;;;5116694;28;20211;-86
2022/04/25 04:52:49;;;;;;;14.67;8.33;;;9.10;99.90;;;;;;5116758;28;20192;-82
2022/04/25 04:55:17;;;;;;;12.87;8.07;;;9.10;99.90;;;;;;5115120;28;20203;-83
2022/04/25 04:57:44;;;;;;;11.33;7.63;;;9.10;99.90;;;;;;5116452;28;20519;-81
2022/04/25 05:00:13;;;;;;;13.20;8.67;;;9.10;99.90;;;;;;5115565;28;20207;-81
2022/04/25 05:02:40;;;;;;;15.27;8.00;;;9.10;99.90;;;;;;5115651;28;20257;-81
2022/04/25 05:05:10;;;;;;;14.13;9.63;;;9.00;99.90;;;;;;5115434;28;20245;-81
2022/04/25 05:07:36;;;;;;;15.23;9.30;;;9.00;99.90;;;;;;5115538;28;20537;-82
2022/04/25 05:10:04;;;;;;;17.80;9.47;;;9.00;99.90;;;;;;5114800;28;20224;-82
2022/04/25 05:12:31;;;;;;;16.93;8.57;;;9.00;99.90;;;;;;5115638;28;20207;-80
2022/04/25 05:14:58;;;;;;;15.33;9.53;;;9.00;99.90;;;;;;5115512;28;20196;-81
2022/04/25 05:17:24;;;;;;;13.87;10.13;;;9.10;99.90;;;;;;5115687;28;20543;-81
2022/04/25 05:19:51;;;;;;;18.63;9.97;;;9.10;99.90;;;;;;5115262;28;20287;-82
2022/04/25 05:22:19;;;;;;;14.73;9.77;;;9.10;99.90;;;;;;5113580;28;20199;-84
2022/04/25 05:24:46;;;;;;;18.30;9.87;;;9.00;99.90;;;;;;5095434;28;20207;-84
2022/04/25 05:27:13;;;;;;;18.73;9.50;;;9.00;99.90;;;;;;5095634;28;20706;-83
2022/04/25 05:29:40;;;;;;;16.03;9.63;;;9.00;99.90;;;;;;5095124;28;20493;-84
2022/04/25 05:32:07;;;;;;;19.33;9.77;;;9.10;99.90;;;;;;5115034;28;20381;-84
2022/04/25 05:34:34;;;;;;;14.13;9.50;;;9.10;99.90;;;;;;5115997;28;20199;-87
2022/04/25 05:37:01;;;;;;;18.33;9.90;;;9.10;99.90;;;;;;5116345;28;20200;-84
2022/04/25 05:39:30;;;;;;;15.27;9.43;;;9.20;99.90;;;;;;5115281;28;20348;-85
2022/04/25 05:41:56;;;;;;;17.33;9.87;;;9.20;99.90;;;;;;5116459;28;20199;-85
2022/04/25 05:44:24;;;;;;;15.07;10.50;;;9.20;99.90;;;;;;5123081;22;20239;-85
2022/04/25 05:46:51;;;;;;;19.30;10.53;;;9.20;99.90;;;;;;5115984;28;20192;-85
2022/04/25 05:52:05;;;;;;;11.40;8.93;;;9.20;99.90;;;;;;5115489;28;20585;-85
2022/04/25 05:54:34;;;;;;;12.70;9.33;;;9.10;99.90;;;;;;5116433;28;20231;-85
2022/04/25 05:57:01;;;;;;;13.23;9.83;;;9.10;99.90;;;;;;5115573;28;20202;-85
2022/04/25 05:59:29;;;;;;;15.30;11.37;;;9.10;99.90;;;;;;5115865;28;20204;-84
2022/04/25 06:01:56;;;;;;;14.60;10.37;;;9.10;99.90;;;;;;5115267;28;20666;-86
2022/04/25 06:04:23;;;;;;;17.07;10.90;;;9.10;99.90;;;;;;5115632;28;20203;-85
2022/04/25 06:06:50;;;;;;;12.90;9.90;;;9.00;99.90;;;;;;5113100;28;20188;-84
2022/04/25 06:09:18;;;;;;;14.93;10.03;;;9.10;99.90;;;;;;5095780;28;20204;-83
2022/04/25 06:11:46;;;;;;;15.97;9.97;;;9.10;99.90;;;;;;5102337;28;20654;-83
2022/04/25 06:14:13;;;;;;;13.87;9.50;;;9.00;99.90;;;;;;5114849;28;20200;-84
2022/04/25 06:16:41;;;;;;;15.97;9.33;;;9.10;99.90;;;;;;5118719;28;20220;-84
2022/04/25 06:19:08;;;;;;;12.63;9.53;;;9.10;99.90;;;;;;5106503;28;20288;-82
2022/04/25 06:21:34;;;;;;;16.93;10.17;;;9.20;99.90;;;;;;5099405;28;20204;-84
2022/04/25 06:24:01;;;;;;;16.23;10.27;;;9.20;99.90;;;;;;5099313;28;20197;-85
2022/04/25 06:26:30;;;;;;;11.63;9.70;;;9.20;99.90;;;;;;5102352;28;20584;-85
2022/04/25 06:28:58;;;;;;;13.80;9.20;;;9.20;99.90;;;;;;5119448;28;20261;-83
2022/04/25 06:31:25;;;;;;;14.53;8.63;;;9.30;99.90;;;;;;5119222;28;20228;-85
2022/04/25 06:33:52;;;;;;;22.53;10.90;;;9.20;99.90;;;;;;5118469;28;20200;-85
2022/04/25 06:36:18;;;;;;;15.33;9.47;;;9.30;99.90;;;;;;5118767;28;20204;-85
2022/04/25 06:38:45;;;;;;;13.87;9.20;;;9.30;99.90;;;;;;5118864;28;20204;-83
2022/04/25 06:41:14;;;;;;;15.43;9.67;;;9.20;99.90;;;;;;5118912;28;20199;-84
2022/04/25 06:43:41;;;;;;;16.03;8.57;;;9.20;99.90;;;;;;5118268;28;20239;-86
2022/04/25 06:46:09;;;;;;;12.87;8.03;;;9.30;99.90;;;;;;5118819;28;20192;-84
2022/04/25 06:48:36;;;;;;;12.90;8.53;;;9.30;99.90;;;;;;5114627;28;20208;-85
2022/04/25 06:51:03;;;;;;;18.30;8.90;;;9.30;99.90;;;;;;5098737;28;20247;-83
2022/04/25 06:53:30;;;;;;;15.20;9.23;;;9.30;99.90;;;;;;5097911;28;20581;-86
2022/04/25 06:55:56;;;;;;;9.50;6.87;;;9.40;99.90;;;;;;5117022;28;20211;-84
2022/04/25 06:58:23;;;;;;;12.00;8.73;;;9.40;99.90;;;;;;5118758;28;20203;-84
2022/04/25 07:00:51;;;;;;;11.07;8.60;;;9.40;99.90;;;;;;5118804;28;20228;-85
2022/04/25 07:03:19;;;;;;;14.27;8.50;;;9.40;99.90;;;;;;5117482;28;20579;-86
2022/04/25 07:05:48;;;;;;;13.87;8.30;;;9.40;99.90;;;;;;5118358;28;20498;-83
2022/04/25 07:08:15;;;;;;;12.03;8.23;;;9.40;99.90;;;;;;5117975;28;20653;-83
2022/04/25 07:10:41;;;;;;;12.97;8.50;;;9.40;99.90;;;;;;5118328;28;20216;-85
2022/04/25 07:13:08;;;;;;;11.27;8.40;;;9.40;99.90;;;;;;5118654;28;20218;-85
2022/04/25 07:15:38;;;;;;;12.70;8.27;;;9.50;99.90;;;;;;5118980;28;20209;-84
2022/04/25 07:18:05;;;;;;;12.90;8.37;;;9.50;99.90;;;;;;5118914;28;20200;-83
2022/04/25 07:20:33;;;;;;;12.13;8.43;;;9.50;99.90;;;;;;5118794;28;20208;-83
2022/04/25 07:31:13;;;;;;;14.90;9.40;;;10.00;99.90;;;;;;5116479;28;20257;-85
2022/04/25 07:33:43;;;;;;;14.23;8.07;;;10.10;99.90;;;;;;5117565;28;20648;-86
2022/04/25 07:36:11;;;;;;;12.33;8.20;;;10.30;99.90;;;;;;5116521;28;20200;-83
2022/04/25 07:38:39;;;;;;;17.17;9.77;;;10.40;99.90;;;;;;5100235;28;20225;-82
2022/04/25 07:41:07;;;;;;;12.93;8.33;;;10.50;99.90;;;;;;5118033;28;20641;-84
2022/04/25 07:43:34;;;;;;;11.47;7.73;;;10.60;99.90;;;;;;5117622;28;20315;-83
2022/04/25 07:46:03;;;;;;;11.73;7.67;;;10.60;99.90;;;;;;5117137;28;20552;-84
2022/04/25 07:48:30;;;;;;;12.33;7.90;;;10.60;99.90;;;;;;5117514;28;20609;-84
2022/04/25 07:50:56;;;;;;;12.77;7.27;;;10.70;99.90;;;;;;5117898;28;20220;-83
2022/04/25 07:53:25;;;;;;;11.97;7.93;;;10.70;99.90;;;;;;5117881;28;20200;-86
2022/04/25 07:55:51;;;;;;;10.83;7.23;;;10.70;99.90;;;;;;5118151;28;20230;-86
2022/04/25 07:58:18;;;;;;;12.40;8.23;;;10.70;99.90;;;;;;5117232;28;20203;-83
2022/04/25 08:00:46;;;;;;;14.07;9.13;;;10.60;99.90;;;;;;5117920;28;20187;-82
2022/04/25 08:03:13;;;;;;;13.13;8.17;;;10.60;99.90;;;;;;5117193;28;20195;-81
2022/04/25 08:05:40;;;;;;;11.13;8.10;;;10.50;99.90;;;;;;5117196;28;20222;-84
2022/04/25 08:08:09;;;;;;;8.80;6.70;;;10.40;99.90;;;;;;5117459;28;20245;-85
2022/04/25 08:10:37;;;;;;;11.53;7.73;;;10.30;99.90;;;;;;5116837;28;20247;-83
2022/04/25 08:18:32;;;;;;;15.27;8.70;;;10.20;99.90;;;;;;5097102;28;20218;-84
2022/04/25 08:21:00;;;;;;;12.03;8.20;;;10.20;99.90;;;;;;5104388;28;20188;-85
2022/04/25 08:23:27;;;;;;;17.17;10.90;;;10.10;99.90;;;;;;5117251;28;20235;-85
2022/04/25 08:25:55;;;;;;;10.63;8.13;;;10.00;99.90;;;;;;5116560;28;20203;-80
2022/04/25 08:28:22;;;;;;;12.97;8.80;;;10.10;99.90;;;;;;5096420;28;20211;-82
2022/04/25 08:30:52;;;;;;;12.73;7.90;;;10.10;99.90;;;;;;5096598;28;20227;-86
2022/04/25 08:33:19;;;;;;;11.67;7.77;;;10.10;99.90;;;;;;5096343;28;20224;-82
2022/04/25 08:35:45;;;;;;;13.67;7.83;;;10.10;99.90;;;;;;5096819;28;20227;-82
2022/04/25 08:38:12;;;;;;;12.27;7.57;;;10.10;99.90;;;;;;5097319;28;20211;-83
2022/04/25 08:40:41;;;;;;;10.90;7.40;;;10.10;99.90;;;;;;5115119;28;20207;-81
2022/04/25 08:43:11;;;;;;;13.13;8.07;;;10.20;99.90;;;;;;5117077;28;20239;-86
2022/04/25 08:45:38;;;;;;;10.30;7.97;;;10.30;99.90;;;;;;5116544;28;20196;-86
2022/04/25 08:48:07;;;;;;;12.33;7.87;;;10.40;99.90;;;;;;5116474;28;20547;-84
2022/04/25 08:50:34;;;;;;;10.57;7.53;;;10.40;99.90;;;;;;5117979;28;20207;-87
2022/04/25 08:53:01;;;;;;;13.53;7.77;;;10.50;99.90;;;;;;5117475;28;20214;-87
2022/04/25 08:55:28;;;;;;;11.13;7.43;;;10.50;99.90;;;;;;5116959;28;20200;-86
2022/04/25 08:57:56;;;;;;;12.30;7.40;;;10.40;99.90;;;;;;5116643;28;20210;-86
2022/04/25 09:00:25;;;;;;;10.53;7.33;;;10.40;99.90;;;;;;5116344;28;20618;-83
2022/04/25 09:02:52;;;;;;;12.10;7.93;;;10.50;99.90;;;;;;5116557;28;20202;-84
2022/04/25 09:05:19;;;;;;;11.67;7.77;;;10.50;99.90;;;;;;5116714;28;20198;-86
2022/04/25 09:07:46;;;;;;;9.87;7.60;;;10.50;99.90;;;;;;5115824;28;20204;-81
2022/04/25 09:10:15;;;;;;;9.10;7.23;;;10.40;99.90;;;;;;5116367;28;20196;-83
2022/04/25 09:12:44;;;;;;;12.67;8.60;;;10.40;99.90;;;;;;5111973;28;20216;-82
2022/04/25 09:15:11;;;;;;;10.30;8.77;;;10.30;99.90;;;;;;5108860;28;20294;-82
2022/04/25 09:17:39;;;;;;;12.57;8.40;;;10.40;99.90;;;;;;5111592;28;20580;-80
2022/04/25 09:20:08;;;;;;;14.07;9.20;;;10.40;99.90;;;;;;5113390;28;20210;-82
2022/04/25 09:22:36;;;;;;;14.50;9.33;;;10.30;99.90;;;;;;5107744;28;20196;-81
2022/04/25 09:25:06;;;;;;;11.43;8.53;;;10.20;99.90;;;;;;5095945;28;20253;-81
2022/04/25 09:27:33;;;;;;;14.00;9.20;;;10.20;99.90;;;;;;5095018;28;20204;-81
2022/04/25 09:30:14;;;;;;;14.93;9.80;;;10.30;99.90;;;;;;5108051;28;20200;-81
2022/04/25 09:32:43;;;;;;;12.30;9.07;;;10.40;99.90;;;;;;5116146;28;20246;-85
2022/04/25 09:35:29;;;;;;;11.00;8.33;;;10.40;99.90;;;;;;5114984;28;20218;-80
2022/04/25 09:37:58;;;;;;;11.07;7.63;;;10.40;99.90;;;;;;5116449;28;20192;-80
2022/04/25 09:40:28;;;;;;;12.37;8.80;;;10.30;99.90;;;;;;5114965;28;20246;-80
2022/04/25 09:43:14;;;;;;;11.60;8.33;;;10.30;99.90;;;;;;5115201;28;20631;-81
2022/04/25 09:45:44;;;;;;;11.83;9.33;;;10.50;99.90;;;;;;5115999;28;20203;-81
2022/04/25 09:48:15;;;;;;;12.60;8.87;;;10.40;99.90;;;;;;5115392;28;20204;-81
2022/04/25 09:50:45;;;;;;;13.77;8.70;;;10.50;99.90;;;;;;5116924;28;20195;-79
2022/04/25 09:53:12;;;;;;;9.57;7.97;;;10.60;99.90;;;;;;5119827;28;20630;-82
2022/04/25 09:55:41;;;;;;;11.43;9.37;;;10.70;99.90;;;;;;5119096;28;20200;-87
2022/04/25 09:58:17;;;;;;;12.70;9.47;;;10.70;99.90;;;;;;5119280;28;20202;-82
2022/04/25 10:00:44;;;;;;;13.67;9.47;;;10.60;99.90;;;;;;5119226;28;20195;-80
2022/04/25 10:03:15;;;;;;;11.73;9.07;;;10.70;99.90;;;;;;5102775;28;20200;-80
2022/04/25 10:05:43;;;;;;;13.97;10.03;;;10.70;99.90;;;;;;5098859;28;20208;-80
2022/04/25 10:08:11;;;;;;;15.67;9.73;;;10.70;99.90;;;;;;5099087;28;20201;-80
2022/04/25 10:10:41;;;;;;;12.00;9.20;;;10.70;99.90;;;;;;5098275;28;20196;-80
2022/04/25 10:13:10;;;;;;;14.20;8.87;;;10.80;99.90;;;;;;5099072;28;20259;-81
2022/04/25 10:15:38;;;;;;;11.07;8.57;;;10.80;99.90;;;;;;5099069;28;20215;-83
2022/04/25 10:18:06;;;;;;;12.87;9.77;;;10.80;99.90;;;;;;5098130;28;20204;-79
2022/04/25 10:20:36;;;;;;;11.57;9.00;;;10.70;99.90;;;;;;5098680;28;20205;-80
2022/04/25 10:23:05;;;;;;;11.23;9.93;;;10.60;99.90;;;;;;5098974;28;20198;-81
2022/04/25 10:25:32;;;;;;;10.60;9.17;;;10.60;99.90;;;;;;5097715;28;20205;-79
2022/04/25 10:28:02;;;;;;;12.47;9.50;;;10.50;99.90;;;;;;5113949;28;20204;-80
2022/04/25 10:30:34;;;;;;;12.30;10.10;;;10.50;99.90;;;;;;5119088;28;20192;-81
2022/04/25 10:33:16;;;;;;;13.27;9.90;;;10.50;99.90;;;;;;5118864;28;20224;-83
2022/04/25 10:35:45;;;;;;;14.60;10.57;;;10.50;99.90;;;;;;5118556;28;20286;-81
2022/04/25 10:44:48;;;;;;;14.90;9.60;;;10.50;99.90;;;;;;5118608;28;20243;-80
2022/04/25 10:47:17;;;;;;;11.17;9.43;;;10.50;99.90;;;;;;5118450;28;20203;-80
2022/04/25 10:49:46;;;;;;;12.10;9.77;;;10.40;99.90;;;;;;5117483;28;20592;-80
2022/04/25 10:52:54;;;;;;;13.80;10.50;;;10.50;99.90;;;;;;5117720;28;20227;-81
2022/04/25 10:55:26;;;;;;;13.40;10.53;;;10.40;99.90;;;;;;5118243;28;20257;-81
2022/04/25 10:58:12;;;;;;;16.03;11.07;;;10.40;99.90;;;;;;5118210;28;20505;-80
2022/04/25 11:00:50;;;;;;;14.87;11.23;;;10.40;99.90;;;;;;5097633;28;20192;-78
2022/04/25 11:03:19;;;;;;;14.93;10.87;;;10.30;99.90;;;;;;5096462;28;20539;-80
2022/04/25 11:05:49;;;;;;;13.43;10.83;;;10.40;99.90;;;;;;5111835;28;20233;-85
2022/04/25 11:08:27;;;;;;;14.70;12.40;;;10.50;99.90;;;;;;5117862;28;20690;-81
2022/04/25 11:11:01;;;;;;;13.97;10.67;;;10.50;99.90;;;;;;5117958;28;20226;-85
2022/04/25 11:13:30;;;;;;;13.87;11.60;;;10.70;99.90;;;;;;5117297;28;20202;-80
2022/04/25 11:15:59;;;;;;;13.23;11.27;;;10.80;99.90;;;;;;5117710;28;20204;-85
2022/04/25 11:18:30;;;;;;;13.30;10.93;;;10.90;99.90;;;;;;5118035;28;20516;-80
2022/04/25 11:20:58;;;;;;;13.43;10.27;;;10.80;99.90;;;;;;5117060;28;20238;-82
2022/04/25 11:23:29;;;;;;;14.20;10.90;;;10.80;99.90;;;;;;5118424;28;20198;-80
2022/04/25 11:25:56;;;;;;;13.83;10.30;;;10.70;99.90;;;;;;5117304;28;20196;-83
2022/04/25 11:28:25;;;;;;;16.17;11.00;;;10.50;99.90;;;;;;5117368;28;20196;-82
2022/04/25 11:31:22;;;;;;;15.20;12.20;;;10.50;99.90;;;;;;5117744;28;20196;-83
2022/04/25 11:33:50;;;;;;;13.93;10.77;;;10.30;99.90;;;;;;5109509;28;20204;-83
2022/04/25 11:36:19;;;;;;;15.67;10.87;;;10.20;99.90;;;;;;5117116;28;20208;-84
2022/04/25 11:41:35;;;;;;;16.77;12.27;;;10.00;99.90;;;;;;5118381;28;20192;-87
2022/04/25 11:44:02;;;;;;;15.67;12.13;;;10.00;99.90;;;;;;5118283;28;20228;-85
2022/04/25 11:46:30;;;;;;;14.17;12.17;;;10.00;99.90;;;;;;5117711;28;20481;-87
2022/04/25 11:49:00;;;;;;;12.70;10.97;;;10.00;99.90;;;;;;5118079;28;20212;-84
2022/04/25 11:51:29;;;;;;;16.77;12.63;;;9.90;99.90;;;;;;5118126;28;20192;-83
2022/04/25 11:53:58;;;;;;;16.97;13.23;;;9.90;99.90;;;;;;5109523;28;20250;-87
2022/04/25 11:56:26;;;;;;;15.97;12.63;;;9.80;99.90;;;;;;5097361;28;20216;-86
2022/04/25 11:58:54;;;;;;;18.03;12.20;;;9.80;99.90;;;;;;5097778;28;20585;-85
2022/04/25 12:01:33;;;;;;;18.90;11.97;;;9.80;99.90;;;;;;5107758;28;20595;-82
2022/04/25 12:04:15;;;;;;;15.33;11.70;;;9.90;99.90;;;;;;5107841;28;20198;-85
2022/04/25 12:06:51;;;;;;;16.87;12.53;;;9.90;99.90;;;;;;5097907;28;20495;-86
2022/04/25 12:17:40;;;;;;;18.70;13.03;;;9.90;99.90;;;;;;5097220;28;20638;-87
2022/04/25 12:20:09;;;;;;;17.77;12.83;;;10.00;99.90;;;;;;5096839;28;20227;-85
2022/04/25 12:22:37;;;;;;;15.77;12.23;;;10.00;99.90;;;;;;5097369;28;20192;-83
2022/04/25 12:25:17;;;;;;;18.07;12.70;;;10.00;99.90;;;;;;5096946;28;20203;-83
2022/04/25 12:28:05;;;;;;;15.93;11.97;;;10.10;99.90;;;;;;5111106;28;20191;-83
2022/04/25 12:30:48;;;;;;;14.50;11.67;;;10.20;99.90;;;;;;5117580;28;20203;-86
2022/04/25 12:33:16;;;;;;;15.53;12.20;;;10.30;99.90;;;;;;5116290;28;20232;-87
2022/04/25 12:35:45;;;;;;;12.37;11.07;;;10.40;99.90;;;;;;5117154;28;20470;-87
2022/04/25 12:38:32;;;;;;;15.07;11.37;;;10.60;99.90;;;;;;5115999;28;20204;-86
2022/04/25 12:41:00;;;;;;;17.07;12.17;;;10.70;99.90;;;;;;5117077;28;20244;-82
2022/04/25 12:43:43;;;;;;;15.70;12.43;;;10.90;99.90;;;;;;5115961;28;20227;-85
2022/04/25 12:46:11;;;;;;;16.90;10.87;;;11.00;99.90;;;;;;5116655;28;20199;-84
2022/04/25 12:49:04;;;;;;;16.07;11.00;;;11.20;99.90;;;;;;5115996;28;20208;-82
2022/04/25 12:51:39;;;;;;;12.00;10.17;;;11.20;99.90;;;;;;5116754;28;20207;-88
2022/04/25 12:54:19;;;;;;;15.03;11.40;;;11.20;99.90;;;;;;5117081;28;20191;-84
2022/04/25 12:56:48;;;;;;;13.33;10.30;;;11.30;99.90;;;;;;5117246;28;20200;-86
2022/04/25 12:59:24;;;;;;;16.33;11.23;;;11.20;99.90;;;;;;5101945;28;20299;-87
2022/04/25 13:02:01;;;;;;;13.13;10.47;;;11.30;99.90;;;;;;5096494;28;20195;-83
2022/04/25 13:04:29;;;;;;;13.20;10.83;;;11.40;99.90;;;;;;5107677;28;20199;-83
2022/04/25 13:06:56;;;;;;;14.77;10.37;;;11.50;99.90;;;;;;5115892;28;20200;-82
2022/04/25 13:09:23;;;;;;;14.00;10.40;;;11.50;99.90;;;;;;5116837;28;20259;-84
2022/04/25 13:11:51;;;;;;;13.30;11.13;;;11.60;99.90;;;;;;5116396;28;20290;-83
2022/04/25 13:14:18;;;;;;;14.03;10.17;;;11.60;99.90;;;;;;5115560;28;20599;-84
2022/04/25 13:16:45;;;;;;;13.90;10.10;;;11.70;99.90;;;;;;5116354;28;20480;-87
2022/04/25 13:19:12;;;;;;;15.30;10.40;;;11.70;99.90;;;;;;5116095;28;20227;-83
2022/04/25 13:21:41;;;;;;;13.87;10.53;;;11.60;99.90;;;;;;5115836;28;20608;-84
2022/04/25 13:24:08;;;;;;;16.57;10.33;;;11.60;99.90;;;;;;5097498;28;20272;-82
2022/04/25 13:26:34;;;;;;;13.20;10.23;;;11.70;99.90;;;;;;5105324;28;20207;-82
2022/04/25 13:29:03;;;;;;;13.83;9.43;;;11.80;99.90;;;;;;5116481;28;20207;-83